sensor_id;sensor_type;location;lat;lon;timestamp;P1;durP1;ratioP1;P2;durP2;ratioP2
13319;SDS011;59599;47.608;12.190;2023-03-31T04:01:42;7.27;;;5.43;;
13319;SDS011;59599;47.608;12.190;2023-03-31T04:04:08;5.63;;;5.10;;
13319;SDS011;59599;47.608;12.190;2023-03-31T04:06:33;6.17;;;5.00;;
13319;SDS011;59599;47.608;12.190;2023-03-31T04:08:59;6.27;;;5.50;;
13319;SDS011;59599;47.608;12.190;2023-03-31T04:11:26;7.47;;;5.70;;
13319;SDS011;59599;47.608;12.190;2023-03-31T04:13:52;7.30;;;5.93;;
13319;SDS011;59599;47.608;12.190;2023-03-31T04:16:18;9.50;;;6.60;;
13319;SDS011;59599;47.608;12.190;2023-03-31T04:18:44;7.20;;;5.87;;
13319;SDS011;59599;47.608;12.190;2023-03-31T04:21:10;8.03;;;5.70;;
13319;SDS011;59599;47.608;12.190;2023-03-31T04:23:40;7.83;;;6.17;;
13319;SDS011;59599;47.608;12.190;2023-03-31T04:26:13;7.30;;;6.47;;
13319;SDS011;59599;47.608;12.190;2023-03-31T04:28:39;8.90;;;7.33;;
13319;SDS011;59599;47.608;12.190;2023-03-31T04:31:09;7.57;;;6.57;;
13319;SDS011;59599;47.608;12.190;2023-03-31T04:33:39;8.43;;;6.67;;
13319;SDS011;59599;47.608;12.190;2023-03-31T04:36:06;7.10;;;6.40;;
13319;SDS011;59599;47.608;12.190;2023-03-31T04:38:48;7.80;;;6.67;;
13319;SDS011;59599;47.608;12.190;2023-03-31T04:41:20;10.30;;;6.90;;
13319;SDS011;59599;47.608;12.190;2023-03-31T04:43:47;7.00;;;6.33;;
13319;SDS011;59599;47.608;12.190;2023-03-31T04:46:13;7.70;;;6.83;;
13319;SDS011;59599;47.608;12.190;2023-03-31T04:48:38;9.13;;;6.77;;
13319;SDS011;59599;47.608;12.190;2023-03-31T04:51:05;10.23;;;7.50;;
13319;SDS011;59599;47.608;12.190;2023-03-31T04:53:30;7.07;;;6.37;;
13319;SDS011;59599;47.608;12.190;2023-03-31T04:55:56;8.03;;;6.73;;
13319;SDS011;59599;47.608;12.190;2023-03-31T04:58:22;8.30;;;7.10;;
13319;SDS011;59599;47.608;12.190;2023-03-31T05:00:48;7.07;;;6.33;;
13319;SDS011;59599;47.608;12.190;2023-03-31T05:03:14;7.97;;;6.57;;
13319;SDS011;59599;47.608;12.190;2023-03-31T05:05:40;9.90;;;6.97;;
13319;SDS011;59599;47.608;12.190;2023-03-31T05:08:06;13.53;;;7.33;;
13319;SDS011;59599;47.608;12.190;2023-03-31T05:10:31;8.43;;;7.57;;
13319;SDS011;59599;47.608;12.190;2023-03-31T05:12:57;8.20;;;7.40;;
13319;SDS011;59599;47.608;12.190;2023-03-31T05:15:23;8.27;;;6.97;;
13319;SDS011;59599;47.608;12.190;2023-03-31T05:17:49;9.00;;;6.57;;
13319;SDS011;59599;47.608;12.190;2023-03-31T05:20:16;8.47;;;6.63;;
13319;SDS011;59599;47.608;12.190;2023-03-31T05:22:43;8.90;;;6.60;;
13319;SDS011;59599;47.608;12.190;2023-03-31T05:25:09;8.00;;;6.77;;
13319;SDS011;59599;47.608;12.190;2023-03-31T05:27:38;9.80;;;7.00;;
13319;SDS011;59599;47.608;12.190;2023-03-31T05:30:04;11.90;;;8.03;;
13319;SDS011;59599;47.608;12.190;2023-03-31T05:32:30;9.97;;;7.30;;
13319;SDS011;59599;47.608;12.190;2023-03-31T05:34:55;11.17;;;6.90;;
13319;SDS011;59599;47.608;12.190;2023-03-31T05:37:24;9.40;;;7.00;;
13319;SDS011;59599;47.608;12.190;2023-03-31T05:39:51;8.60;;;6.63;;
13319;SDS011;59599;47.608;12.190;2023-03-31T05:42:17;7.87;;;6.50;;
13319;SDS011;59599;47.608;12.190;2023-03-31T05:44:43;8.23;;;7.10;;
13319;SDS011;59599;47.608;12.190;2023-03-31T05:47:09;9.53;;;6.70;;
13319;SDS011;59599;47.608;12.190;2023-03-31T05:49:34;8.13;;;7.33;;
13319;SDS011;59599;47.608;12.190;2023-03-31T05:52:00;9.97;;;6.80;;
13319;SDS011;59599;47.608;12.190;2023-03-31T05:54:26;9.93;;;7.07;;
13319;SDS011;59599;47.608;12.190;2023-03-31T05:56:52;7.67;;;6.97;;
13319;SDS011;59599;47.608;12.190;2023-03-31T05:59:18;8.43;;;6.97;;
13319;SDS011;59599;47.608;12.190;2023-03-31T06:01:44;8.30;;;6.97;;
13319;SDS011;59599;47.608;12.190;2023-03-31T06:04:10;11.10;;;6.53;;
13319;SDS011;59599;47.608;12.190;2023-03-31T06:06:36;7.67;;;6.80;;
13319;SDS011;59599;47.608;12.190;2023-03-31T06:09:02;8.07;;;7.03;;
13319;SDS011;59599;47.608;12.190;2023-03-31T06:11:28;8.57;;;7.13;;
13319;SDS011;59599;47.608;12.190;2023-03-31T06:13:54;8.03;;;7.17;;
13319;SDS011;59599;47.608;12.190;2023-03-31T06:16:20;8.80;;;7.20;;
13319;SDS011;59599;47.608;12.190;2023-03-31T06:18:45;9.67;;;6.83;;
13319;SDS011;59599;47.608;12.190;2023-03-31T06:21:15;7.83;;;6.50;;
13319;SDS011;59599;47.608;12.190;2023-03-31T06:23:41;11.07;;;7.77;;
13319;SDS011;59599;47.608;12.190;2023-03-31T06:26:11;10.27;;;7.37;;
13319;SDS011;59599;47.608;12.190;2023-03-31T06:28:42;8.37;;;7.50;;
13319;SDS011;59599;47.608;12.190;2023-03-31T06:31:09;9.90;;;7.77;;
13319;SDS011;59599;47.608;12.190;2023-03-31T06:33:40;12.00;;;8.23;;
13319;SDS011;59599;47.608;12.190;2023-03-31T06:36:07;9.03;;;7.77;;
13319;SDS011;59599;47.608;12.190;2023-03-31T06:38:34;10.90;;;8.47;;
13319;SDS011;59599;47.608;12.190;2023-03-31T06:41:01;9.83;;;8.80;;
13319;SDS011;59599;47.608;12.190;2023-03-31T06:43:27;12.77;;;9.27;;
13319;SDS011;59599;47.608;12.190;2023-03-31T06:45:53;11.73;;;8.57;;
13319;SDS011;59599;47.608;12.190;2023-03-31T06:48:19;10.10;;;8.63;;
13319;SDS011;59599;47.608;12.190;2023-03-31T06:50:44;11.00;;;8.87;;
13319;SDS011;59599;47.608;12.190;2023-03-31T06:53:10;9.37;;;8.13;;
13319;SDS011;59599;47.608;12.190;2023-03-31T06:55:36;9.57;;;8.43;;
13319;SDS011;59599;47.608;12.190;2023-03-31T06:58:02;11.50;;;9.17;;
13319;SDS011;59599;47.608;12.190;2023-03-31T07:00:29;11.10;;;9.77;;
13319;SDS011;59599;47.608;12.190;2023-03-31T07:02:55;12.33;;;8.83;;
13319;SDS011;59599;47.608;12.190;2023-03-31T07:05:21;10.30;;;8.90;;
13319;SDS011;59599;47.608;12.190;2023-03-31T07:07:52;10.27;;;8.70;;
13319;SDS011;59599;47.608;12.190;2023-03-31T07:10:18;10.33;;;8.87;;
13319;SDS011;59599;47.608;12.190;2023-03-31T07:12:44;13.17;;;9.17;;
13319;SDS011;59599;47.608;12.190;2023-03-31T07:15:10;11.47;;;9.20;;
13319;SDS011;59599;47.608;12.190;2023-03-31T07:17:36;10.40;;;9.23;;
13319;SDS011;59599;47.608;12.190;2023-03-31T07:20:06;9.90;;;8.90;;
13319;SDS011;59599;47.608;12.190;2023-03-31T07:22:42;11.50;;;8.97;;
13319;SDS011;59599;47.608;12.190;2023-03-31T07:25:09;9.13;;;7.93;;
13319;SDS011;59599;47.608;12.190;2023-03-31T07:27:35;12.07;;;8.13;;
13319;SDS011;59599;47.608;12.190;2023-03-31T07:30:03;13.00;;;9.40;;
13319;SDS011;59599;47.608;12.190;2023-03-31T07:32:29;9.40;;;8.40;;
13319;SDS011;59599;47.608;12.190;2023-03-31T07:34:54;9.17;;;8.23;;
13319;SDS011;59599;47.608;12.190;2023-03-31T07:37:20;9.93;;;8.53;;
13319;SDS011;59599;47.608;12.190;2023-03-31T07:39:46;8.80;;;7.80;;
13319;SDS011;59599;47.608;12.190;2023-03-31T07:42:12;9.87;;;8.13;;
13319;SDS011;59599;47.608;12.190;2023-03-31T07:44:37;9.87;;;8.03;;
13319;SDS011;59599;47.608;12.190;2023-03-31T07:47:03;10.27;;;8.53;;
13319;SDS011;59599;47.608;12.190;2023-03-31T07:49:33;9.43;;;8.43;;
13319;SDS011;59599;47.608;12.190;2023-03-31T07:51:59;9.13;;;7.40;;
13319;SDS011;59599;47.608;12.190;2023-03-31T07:54:26;11.37;;;8.23;;
13319;SDS011;59599;47.608;12.190;2023-03-31T07:56:52;10.20;;;7.30;;
13319;SDS011;59599;47.608;12.190;2023-03-31T07:59:18;8.57;;;7.10;;
13319;SDS011;59599;47.608;12.190;2023-03-31T08:01:44;6.83;;;6.13;;
13319;SDS011;59599;47.608;12.190;2023-03-31T08:04:10;7.70;;;6.80;;
13319;SDS011;59599;47.608;12.190;2023-03-31T08:06:36;8.47;;;6.87;;
13319;SDS011;59599;47.608;12.190;2023-03-31T08:09:03;8.30;;;7.40;;
13319;SDS011;59599;47.608;12.190;2023-03-31T08:11:31;10.27;;;7.90;;
13319;SDS011;59599;47.608;12.190;2023-03-31T08:13:56;10.00;;;8.53;;
13319;SDS011;59599;47.608;12.190;2023-03-31T08:16:22;9.37;;;7.67;;
13319;SDS011;59599;47.608;12.190;2023-03-31T08:18:48;8.57;;;7.77;;
13319;SDS011;59599;47.608;12.190;2023-03-31T08:21:14;9.80;;;8.03;;
13319;SDS011;59599;47.608;12.190;2023-03-31T08:23:40;11.77;;;8.77;;
13319;SDS011;59599;47.608;12.190;2023-03-31T08:26:10;10.83;;;8.03;;
13319;SDS011;59599;47.608;12.190;2023-03-31T08:28:37;10.43;;;8.53;;
13319;SDS011;59599;47.608;12.190;2023-03-31T08:31:03;11.00;;;8.67;;
13319;SDS011;59599;47.608;12.190;2023-03-31T08:33:30;10.10;;;8.40;;
13319;SDS011;59599;47.608;12.190;2023-03-31T08:35:55;10.50;;;8.40;;
13319;SDS011;59599;47.608;12.190;2023-03-31T08:38:21;12.50;;;8.00;;
13319;SDS011;59599;47.608;12.190;2023-03-31T08:40:47;13.07;;;9.63;;
13319;SDS011;59599;47.608;12.190;2023-03-31T08:43:15;8.93;;;7.77;;
13319;SDS011;59599;47.608;12.190;2023-03-31T08:45:50;10.17;;;7.60;;
13319;SDS011;59599;47.608;12.190;2023-03-31T08:50:58;11.20;;;7.53;;
13319;SDS011;59599;47.608;12.190;2023-03-31T08:53:32;12.93;;;8.07;;
13319;SDS011;59599;47.608;12.190;2023-03-31T08:56:04;10.60;;;8.17;;
13319;SDS011;59599;47.608;12.190;2023-03-31T08:58:44;7.77;;;6.20;;
13319;SDS011;59599;47.608;12.190;2023-03-31T09:01:18;8.17;;;6.03;;
13319;SDS011;59599;47.608;12.190;2023-03-31T09:07:01;6.43;;;5.67;;
13319;SDS011;59599;47.608;12.190;2023-03-31T09:12:12;6.70;;;6.00;;
13319;SDS011;59599;47.608;12.190;2023-03-31T09:14:52;6.53;;;5.13;;
13319;SDS011;59599;47.608;12.190;2023-03-31T09:17:29;7.33;;;5.80;;
13319;SDS011;59599;47.608;12.190;2023-03-31T09:19:57;6.40;;;5.73;;
13319;SDS011;59599;47.608;12.190;2023-03-31T09:22:26;6.27;;;5.43;;
13319;SDS011;59599;47.608;12.190;2023-03-31T09:27:29;9.00;;;5.67;;
13319;SDS011;59599;47.608;12.190;2023-03-31T09:30:08;8.27;;;6.07;;
13319;SDS011;59599;47.608;12.190;2023-03-31T09:32:42;7.43;;;5.70;;
13319;SDS011;59599;47.608;12.190;2023-03-31T09:37:50;11.23;;;6.37;;
13319;SDS011;59599;47.608;12.190;2023-03-31T09:40:18;9.33;;;6.27;;
13319;SDS011;59599;47.608;12.190;2023-03-31T09:42:46;7.30;;;6.40;;
13319;SDS011;59599;47.608;12.190;2023-03-31T09:45:18;8.30;;;6.93;;
13319;SDS011;59599;47.608;12.190;2023-03-31T09:47:50;8.10;;;7.30;;
13319;SDS011;59599;47.608;12.190;2023-03-31T09:50:18;7.77;;;6.97;;
13319;SDS011;59599;47.608;12.190;2023-03-31T09:52:52;8.13;;;6.90;;
13319;SDS011;59599;47.608;12.190;2023-03-31T09:55:25;9.10;;;7.13;;
13319;SDS011;59599;47.608;12.190;2023-03-31T09:57:57;10.43;;;7.90;;
13319;SDS011;59599;47.608;12.190;2023-03-31T10:00:25;9.03;;;6.73;;
13319;SDS011;59599;47.608;12.190;2023-03-31T10:02:52;9.33;;;7.90;;
13319;SDS011;59599;47.608;12.190;2023-03-31T10:05:35;7.67;;;6.70;;
13319;SDS011;59599;47.608;12.190;2023-03-31T10:10:52;9.17;;;6.53;;
13319;SDS011;59599;47.608;12.190;2023-03-31T10:13:22;10.37;;;5.70;;
13319;SDS011;59599;47.608;12.190;2023-03-31T10:16:05;6.07;;;5.30;;
13319;SDS011;59599;47.608;12.190;2023-03-31T10:18:37;7.53;;;6.10;;
13319;SDS011;59599;47.608;12.190;2023-03-31T10:21:06;8.90;;;6.17;;
13319;SDS011;59599;47.608;12.190;2023-03-31T10:23:46;7.93;;;4.67;;
13319;SDS011;59599;47.608;12.190;2023-03-31T10:26:20;5.90;;;4.80;;
13319;SDS011;59599;47.608;12.190;2023-03-31T10:28:50;9.27;;;4.97;;
13319;SDS011;59599;47.608;12.190;2023-03-31T10:31:17;5.47;;;4.30;;
13319;SDS011;59599;47.608;12.190;2023-03-31T10:33:45;6.70;;;4.60;;
13319;SDS011;59599;47.608;12.190;2023-03-31T10:36:20;8.83;;;4.50;;
13319;SDS011;59599;47.608;12.190;2023-03-31T10:38:50;5.30;;;3.83;;
13319;SDS011;59599;47.608;12.190;2023-03-31T10:41:21;5.53;;;3.50;;
13319;SDS011;59599;47.608;12.190;2023-03-31T10:43:53;4.23;;;3.10;;
13319;SDS011;59599;47.608;12.190;2023-03-31T10:46:20;3.20;;;2.67;;
13319;SDS011;59599;47.608;12.190;2023-03-31T10:49:25;3.17;;;2.87;;
13319;SDS011;59599;47.608;12.190;2023-03-31T10:51:52;4.17;;;3.13;;
13319;SDS011;59599;47.608;12.190;2023-03-31T10:54:20;4.00;;;3.53;;
13319;SDS011;59599;47.608;12.190;2023-03-31T11:07:34;4.43;;;3.43;;
13319;SDS011;59599;47.608;12.190;2023-03-31T11:29:29;4.20;;;3.53;;
13319;SDS011;59599;47.608;12.190;2023-03-31T11:42:56;5.90;;;3.90;;
13319;SDS011;59599;47.608;12.190;2023-03-31T11:45:34;5.30;;;3.60;;
13319;SDS011;59599;47.608;12.190;2023-03-31T11:48:12;5.17;;;4.13;;
13319;SDS011;59599;47.608;12.190;2023-03-31T11:50:46;5.57;;;4.43;;
13319;SDS011;59599;47.608;12.190;2023-03-31T11:53:17;4.83;;;3.67;;
13319;SDS011;59599;47.608;12.190;2023-03-31T11:55:49;5.97;;;4.53;;
13319;SDS011;59599;47.608;12.190;2023-03-31T11:58:20;6.93;;;5.37;;
13319;SDS011;59599;47.608;12.190;2023-03-31T12:00:55;8.83;;;6.00;;
13319;SDS011;59599;47.608;12.190;2023-03-31T12:03:53;12.93;;;6.47;;
13319;SDS011;59599;47.608;12.190;2023-03-31T12:06:30;6.07;;;5.40;;
13319;SDS011;59599;47.608;12.190;2023-03-31T12:14:53;4.60;;;3.40;;
13319;SDS011;59599;47.608;12.190;2023-03-31T12:17:25;8.70;;;5.70;;
13319;SDS011;59599;47.608;12.190;2023-03-31T12:19:55;11.20;;;6.87;;
13319;SDS011;59599;47.608;12.190;2023-03-31T12:22:28;16.67;;;7.80;;
13319;SDS011;59599;47.608;12.190;2023-03-31T12:25:11;9.80;;;7.30;;
13319;SDS011;59599;47.608;12.190;2023-03-31T12:27:39;10.53;;;6.93;;
13319;SDS011;59599;47.608;12.190;2023-03-31T12:33:23;13.13;;;8.17;;
13319;SDS011;59599;47.608;12.190;2023-03-31T12:36:06;13.70;;;8.47;;
13319;SDS011;59599;47.608;12.190;2023-03-31T12:46:33;6.67;;;5.70;;
13319;SDS011;59599;47.608;12.190;2023-03-31T12:52:06;6.87;;;4.83;;
13319;SDS011;59599;47.608;12.190;2023-03-31T12:54:44;6.27;;;4.47;;
13319;SDS011;59599;47.608;12.190;2023-03-31T12:57:21;7.37;;;5.37;;
13319;SDS011;59599;47.608;12.190;2023-03-31T13:02:38;9.30;;;6.27;;
13319;SDS011;59599;47.608;12.190;2023-03-31T13:08:02;9.50;;;5.43;;
13319;SDS011;59599;47.608;12.190;2023-03-31T13:10:30;5.20;;;4.53;;
13319;SDS011;59599;47.608;12.190;2023-03-31T13:13:01;6.83;;;4.57;;
13319;SDS011;59599;47.608;12.190;2023-03-31T13:15:35;4.73;;;3.40;;
13319;SDS011;59599;47.608;12.190;2023-03-31T13:18:02;5.43;;;3.87;;
13319;SDS011;59599;47.608;12.190;2023-03-31T13:23:12;5.53;;;3.50;;
13319;SDS011;59599;47.608;12.190;2023-03-31T13:25:44;5.33;;;3.60;;
13319;SDS011;59599;47.608;12.190;2023-03-31T13:28:17;6.70;;;3.63;;
13319;SDS011;59599;47.608;12.190;2023-03-31T13:33:39;6.33;;;4.27;;
13319;SDS011;59599;47.608;12.190;2023-03-31T13:36:28;5.80;;;4.13;;
13319;SDS011;59599;47.608;12.190;2023-03-31T13:42:05;5.23;;;3.97;;
13319;SDS011;59599;47.608;12.190;2023-03-31T13:47:32;4.63;;;3.90;;
13319;SDS011;59599;47.608;12.190;2023-03-31T13:50:28;7.50;;;4.60;;
13319;SDS011;59599;47.608;12.190;2023-03-31T13:53:18;6.53;;;4.83;;
13319;SDS011;59599;47.608;12.190;2023-03-31T14:07:36;5.10;;;3.43;;
13319;SDS011;59599;47.608;12.190;2023-03-31T14:10:08;4.07;;;3.33;;
13319;SDS011;59599;47.608;12.190;2023-03-31T14:12:47;7.20;;;5.07;;
13319;SDS011;59599;47.608;12.190;2023-03-31T14:15:17;3.77;;;2.20;;
13319;SDS011;59599;47.608;12.190;2023-03-31T14:17:44;5.27;;;3.27;;
13319;SDS011;59599;47.608;12.190;2023-03-31T14:28:11;5.37;;;3.03;;
13319;SDS011;59599;47.608;12.190;2023-03-31T14:36:32;4.33;;;2.73;;
13319;SDS011;59599;47.608;12.190;2023-03-31T14:39:31;2.87;;;2.00;;
13319;SDS011;59599;47.608;12.190;2023-03-31T14:42:19;1.73;;;1.53;;
13319;SDS011;59599;47.608;12.190;2023-03-31T14:44:53;1.97;;;1.57;;
13319;SDS011;59599;47.608;12.190;2023-03-31T14:47:21;3.80;;;2.00;;
13319;SDS011;59599;47.608;12.190;2023-03-31T14:49:57;4.80;;;2.30;;
13319;SDS011;59599;47.608;12.190;2023-03-31T14:52:27;2.17;;;1.90;;
13319;SDS011;59599;47.608;12.190;2023-03-31T14:54:55;3.03;;;1.77;;
13319;SDS011;59599;47.608;12.190;2023-03-31T14:57:24;4.37;;;2.27;;
13319;SDS011;59599;47.608;12.190;2023-03-31T15:00:04;4.20;;;3.57;;
13319;SDS011;59599;47.608;12.190;2023-03-31T15:02:33;3.13;;;2.80;;
13319;SDS011;59599;47.608;12.190;2023-03-31T15:05:05;2.50;;;2.00;;
13319;SDS011;59599;47.608;12.190;2023-03-31T15:07:35;2.50;;;2.07;;
13319;SDS011;59599;47.608;12.190;2023-03-31T15:10:02;2.40;;;1.90;;
13319;SDS011;59599;47.608;12.190;2023-03-31T15:12:29;3.17;;;2.80;;
13319;SDS011;59599;47.608;12.190;2023-03-31T15:14:56;3.40;;;2.50;;
13319;SDS011;59599;47.608;12.190;2023-03-31T15:17:28;4.17;;;2.90;;
13319;SDS011;59599;47.608;12.190;2023-03-31T15:20:25;3.10;;;2.67;;
13319;SDS011;59599;47.608;12.190;2023-03-31T15:22:56;4.07;;;3.10;;
13319;SDS011;59599;47.608;12.190;2023-03-31T15:25:33;3.37;;;3.07;;
13319;SDS011;59599;47.608;12.190;2023-03-31T15:28:06;3.10;;;2.60;;
13319;SDS011;59599;47.608;12.190;2023-03-31T15:30:35;3.40;;;2.50;;
13319;SDS011;59599;47.608;12.190;2023-03-31T15:33:04;5.03;;;2.53;;
13319;SDS011;59599;47.608;12.190;2023-03-31T15:35:35;6.07;;;2.50;;
13319;SDS011;59599;47.608;12.190;2023-03-31T15:38:02;4.23;;;2.10;;
13319;SDS011;59599;47.608;12.190;2023-03-31T15:40:36;2.87;;;2.20;;
13319;SDS011;59599;47.608;12.190;2023-03-31T15:45:36;2.83;;;2.20;;
13319;SDS011;59599;47.608;12.190;2023-03-31T15:48:20;3.93;;;2.30;;
13319;SDS011;59599;47.608;12.190;2023-03-31T15:51:06;3.27;;;2.60;;
13319;SDS011;59599;47.608;12.190;2023-03-31T15:58:57;8.90;;;6.57;;
13319;SDS011;59599;47.608;12.190;2023-03-31T16:01:28;14.17;;;9.07;;
13319;SDS011;59599;47.608;12.190;2023-03-31T16:03:57;6.63;;;3.47;;
13319;SDS011;59599;47.608;12.190;2023-03-31T16:09:06;3.67;;;2.77;;
13319;SDS011;59599;47.608;12.190;2023-03-31T16:11:35;4.63;;;3.90;;
13319;SDS011;59599;47.608;12.190;2023-03-31T16:14:05;8.57;;;5.00;;
13319;SDS011;59599;47.608;12.190;2023-03-31T16:16:34;7.73;;;6.23;;
13319;SDS011;59599;47.608;12.190;2023-03-31T16:19:01;7.37;;;4.90;;
13319;SDS011;59599;47.608;12.190;2023-03-31T16:21:32;7.63;;;3.30;;
13319;SDS011;59599;47.608;12.190;2023-03-31T16:24:03;6.50;;;4.07;;
13319;SDS011;59599;47.608;12.190;2023-03-31T16:26:30;5.47;;;3.80;;
13319;SDS011;59599;47.608;12.190;2023-03-31T16:28:56;5.73;;;4.50;;
13319;SDS011;59599;47.608;12.190;2023-03-31T16:31:28;4.97;;;3.70;;
13319;SDS011;59599;47.608;12.190;2023-03-31T16:34:02;5.32;;;3.20;;
13319;SDS011;59599;47.608;12.190;2023-03-31T16:36:30;9.45;;;5.40;;
13319;SDS011;59599;47.608;12.190;2023-03-31T16:38:55;6.60;;;4.60;;
13319;SDS011;59599;47.608;12.190;2023-03-31T16:41:23;16.40;;;8.33;;
13319;SDS011;59599;47.608;12.190;2023-03-31T16:43:50;4.43;;;3.03;;
13319;SDS011;59599;47.608;12.190;2023-03-31T16:46:17;12.43;;;7.93;;
13319;SDS011;59599;47.608;12.190;2023-03-31T16:48:44;5.00;;;3.73;;
13319;SDS011;59599;47.608;12.190;2023-03-31T16:51:09;7.43;;;4.80;;
13319;SDS011;59599;47.608;12.190;2023-03-31T16:53:35;9.60;;;6.27;;
13319;SDS011;59599;47.608;12.190;2023-03-31T16:56:01;13.50;;;8.73;;
13319;SDS011;59599;47.608;12.190;2023-03-31T16:58:28;14.10;;;8.87;;
13319;SDS011;59599;47.608;12.190;2023-03-31T17:00:54;4.60;;;3.70;;
13319;SDS011;59599;47.608;12.190;2023-03-31T17:03:21;2.53;;;2.20;;
13319;SDS011;59599;47.608;12.190;2023-03-31T17:05:48;3.20;;;2.57;;
13319;SDS011;59599;47.608;12.190;2023-03-31T17:08:17;4.77;;;2.40;;
13319;SDS011;59599;47.608;12.190;2023-03-31T17:10:51;2.63;;;2.30;;
13319;SDS011;59599;47.608;12.190;2023-03-31T17:13:18;3.87;;;2.67;;
13319;SDS011;59599;47.608;12.190;2023-03-31T17:15:44;5.07;;;3.73;;
13319;SDS011;59599;47.608;12.190;2023-03-31T17:18:10;6.10;;;3.80;;
13319;SDS011;59599;47.608;12.190;2023-03-31T17:20:36;3.57;;;2.63;;
13319;SDS011;59599;47.608;12.190;2023-03-31T17:23:02;2.50;;;2.30;;
13319;SDS011;59599;47.608;12.190;2023-03-31T17:25:28;4.97;;;2.83;;
13319;SDS011;59599;47.608;12.190;2023-03-31T17:27:54;9.73;;;5.97;;
13319;SDS011;59599;47.608;12.190;2023-03-31T17:30:21;11.00;;;7.17;;
13319;SDS011;59599;47.608;12.190;2023-03-31T17:32:46;6.80;;;3.53;;
13319;SDS011;59599;47.608;12.190;2023-03-31T17:35:12;4.57;;;3.00;;
13319;SDS011;59599;47.608;12.190;2023-03-31T17:37:45;6.13;;;3.43;;
13319;SDS011;59599;47.608;12.190;2023-03-31T17:40:11;5.00;;;3.33;;
13319;SDS011;59599;47.608;12.190;2023-03-31T17:42:37;7.07;;;4.87;;
13319;SDS011;59599;47.608;12.190;2023-03-31T17:45:03;6.87;;;4.87;;
13319;SDS011;59599;47.608;12.190;2023-03-31T17:47:29;6.20;;;4.20;;
13319;SDS011;59599;47.608;12.190;2023-03-31T17:49:56;4.73;;;3.13;;
13319;SDS011;59599;47.608;12.190;2023-03-31T17:52:22;4.53;;;3.00;;
13319;SDS011;59599;47.608;12.190;2023-03-31T17:54:49;4.70;;;3.00;;
13319;SDS011;59599;47.608;12.190;2023-03-31T17:57:15;12.23;;;8.10;;
13319;SDS011;59599;47.608;12.190;2023-03-31T17:59:41;5.03;;;3.37;;
13319;SDS011;59599;47.608;12.190;2023-03-31T18:02:09;4.23;;;3.17;;
13319;SDS011;59599;47.608;12.190;2023-03-31T18:04:37;5.07;;;3.50;;
13319;SDS011;59599;47.608;12.190;2023-03-31T18:07:03;3.17;;;2.80;;
13319;SDS011;59599;47.608;12.190;2023-03-31T18:09:29;4.00;;;3.03;;
13319;SDS011;59599;47.608;12.190;2023-03-31T18:11:55;3.47;;;3.07;;
13319;SDS011;59599;47.608;12.190;2023-03-31T18:14:22;4.50;;;3.33;;
13319;SDS011;59599;47.608;12.190;2023-03-31T18:16:48;8.13;;;4.00;;
13319;SDS011;59599;47.608;12.190;2023-03-31T18:19:14;7.07;;;3.90;;
13319;SDS011;59599;47.608;12.190;2023-03-31T18:21:40;5.17;;;3.80;;
13319;SDS011;59599;47.608;12.190;2023-03-31T18:24:06;5.47;;;3.60;;
13319;SDS011;59599;47.608;12.190;2023-03-31T18:26:32;6.13;;;3.60;;
13319;SDS011;59599;47.608;12.190;2023-03-31T18:28:58;6.53;;;3.63;;
13319;SDS011;59599;47.608;12.190;2023-03-31T18:31:24;3.90;;;2.50;;
13319;SDS011;59599;47.608;12.190;2023-03-31T18:33:51;3.97;;;2.87;;
13319;SDS011;59599;47.608;12.190;2023-03-31T18:36:19;3.20;;;2.40;;
13319;SDS011;59599;47.608;12.190;2023-03-31T18:38:46;4.03;;;2.60;;
13319;SDS011;59599;47.608;12.190;2023-03-31T18:41:13;3.87;;;2.30;;
13319;SDS011;59599;47.608;12.190;2023-03-31T18:43:39;3.17;;;2.40;;
13319;SDS011;59599;47.608;12.190;2023-03-31T18:46:05;2.93;;;2.17;;
13319;SDS011;59599;47.608;12.190;2023-03-31T18:48:31;3.10;;;2.60;;
13319;SDS011;59599;47.608;12.190;2023-03-31T18:50:58;4.10;;;2.83;;
13319;SDS011;59599;47.608;12.190;2023-03-31T18:53:24;4.73;;;2.70;;
13319;SDS011;59599;47.608;12.190;2023-03-31T18:55:55;4.83;;;3.17;;
13319;SDS011;59599;47.608;12.190;2023-03-31T18:58:22;3.97;;;3.00;;
13319;SDS011;59599;47.608;12.190;2023-03-31T19:00:49;5.30;;;3.13;;
13319;SDS011;59599;47.608;12.190;2023-03-31T19:03:15;3.83;;;3.43;;
13319;SDS011;59599;47.608;12.190;2023-03-31T19:05:42;4.87;;;3.63;;
13319;SDS011;59599;47.608;12.190;2023-03-31T19:08:08;4.17;;;3.70;;
13319;SDS011;59599;47.608;12.190;2023-03-31T19:10:33;4.40;;;3.37;;
13319;SDS011;59599;47.608;12.190;2023-03-31T19:13:00;10.60;;;6.70;;
13319;SDS011;59599;47.608;12.190;2023-03-31T19:15:26;8.20;;;6.07;;
13319;SDS011;59599;47.608;12.190;2023-03-31T19:17:52;10.57;;;7.20;;
13319;SDS011;59599;47.608;12.190;2023-03-31T19:20:18;6.47;;;5.50;;
13319;SDS011;59599;47.608;12.190;2023-03-31T19:22:45;7.60;;;4.87;;
13319;SDS011;59599;47.608;12.190;2023-03-31T19:25:13;6.73;;;4.80;;
13319;SDS011;59599;47.608;12.190;2023-03-31T19:27:40;5.00;;;3.23;;
13319;SDS011;59599;47.608;12.190;2023-03-31T19:30:07;3.77;;;2.97;;
13319;SDS011;59599;47.608;12.190;2023-03-31T19:32:41;5.03;;;3.00;;
13319;SDS011;59599;47.608;12.190;2023-03-31T19:35:07;3.40;;;3.00;;
13319;SDS011;59599;47.608;12.190;2023-03-31T19:37:32;4.73;;;2.80;;
13319;SDS011;59599;47.608;12.190;2023-03-31T19:39:58;3.77;;;2.80;;
13319;SDS011;59599;47.608;12.190;2023-03-31T19:42:24;3.87;;;3.30;;
13319;SDS011;59599;47.608;12.190;2023-03-31T19:44:50;3.47;;;3.17;;
13319;SDS011;59599;47.608;12.190;2023-03-31T19:47:16;3.70;;;3.20;;
13319;SDS011;59599;47.608;12.190;2023-03-31T19:49:42;5.50;;;3.90;;
13319;SDS011;59599;47.608;12.190;2023-03-31T19:52:08;5.20;;;3.10;;
13319;SDS011;59599;47.608;12.190;2023-03-31T19:54:34;4.13;;;3.40;;
13319;SDS011;59599;47.608;12.190;2023-03-31T19:57:00;4.07;;;3.17;;
13319;SDS011;59599;47.608;12.190;2023-03-31T19:59:26;4.53;;;2.90;;
13319;SDS011;59599;47.608;12.190;2023-03-31T20:01:52;4.40;;;2.60;;
13319;SDS011;59599;47.608;12.190;2023-03-31T20:04:18;5.80;;;3.17;;
13319;SDS011;59599;47.608;12.190;2023-03-31T20:06:44;4.53;;;3.23;;
13319;SDS011;59599;47.608;12.190;2023-03-31T20:09:10;5.07;;;3.87;;
13319;SDS011;59599;47.608;12.190;2023-03-31T20:11:36;5.53;;;3.40;;
13319;SDS011;59599;47.608;12.190;2023-03-31T20:14:03;3.83;;;3.10;;
13319;SDS011;59599;47.608;12.190;2023-03-31T20:16:30;5.83;;;3.83;;
13319;SDS011;59599;47.608;12.190;2023-03-31T20:18:57;4.77;;;4.20;;
13319;SDS011;59599;47.608;12.190;2023-03-31T20:21:28;5.73;;;4.50;;
13319;SDS011;59599;47.608;12.190;2023-03-31T20:23:55;5.43;;;4.10;;
13319;SDS011;59599;47.608;12.190;2023-03-31T20:26:23;8.03;;;4.67;;
13319;SDS011;59599;47.608;12.190;2023-03-31T20:28:50;4.23;;;3.77;;
13319;SDS011;59599;47.608;12.190;2023-03-31T20:31:19;5.90;;;3.60;;
13319;SDS011;59599;47.608;12.190;2023-03-31T20:33:47;6.10;;;4.20;;
13319;SDS011;59599;47.608;12.190;2023-03-31T20:36:17;5.97;;;4.33;;
13319;SDS011;59599;47.608;12.190;2023-03-31T20:38:45;4.47;;;3.90;;
13319;SDS011;59599;47.608;12.190;2023-03-31T20:41:12;6.53;;;3.63;;
13319;SDS011;59599;47.608;12.190;2023-03-31T20:43:38;7.93;;;3.63;;
13319;SDS011;59599;47.608;12.190;2023-03-31T20:46:06;5.10;;;2.77;;
13319;SDS011;59599;47.608;12.190;2023-03-31T20:48:33;4.83;;;3.40;;
13319;SDS011;59599;47.608;12.190;2023-03-31T20:51:00;4.37;;;3.47;;
13319;SDS011;59599;47.608;12.190;2023-03-31T20:53:26;5.23;;;3.90;;
13319;SDS011;59599;47.608;12.190;2023-03-31T20:55:52;3.90;;;3.53;;